createdAt,value
2017-04-07T00:00:50.927Z,9.70
2017-04-07T00:01:49.999Z,9.08
2017-04-07T00:02:48.965Z,9.35
2017-04-07T00:03:47.545Z,9.05
2017-04-07T00:04:46.635Z,9.22
2017-04-07T00:05:45.627Z,9.67
2017-04-07T00:06:44.626Z,8.50
2017-04-07T00:07:43.627Z,8.77
2017-04-07T00:08:42.650Z,11.75
2017-04-07T00:09:41.646Z,8.40
2017-04-07T00:10:40.327Z,9.88
2017-04-07T00:11:39.319Z,8.93
2017-04-07T00:12:38.330Z,10.40
2017-04-07T00:13:37.337Z,8.55
2017-04-07T00:14:36.618Z,10.33
2017-04-07T00:15:35.633Z,10.60
2017-04-07T00:16:34.627Z,10.98
2017-04-07T00:17:33.652Z,9.47
2017-04-07T00:18:32.785Z,9.63
2017-04-07T00:19:31.355Z,9.78
2017-04-07T00:20:30.171Z,10.22
2017-04-07T00:21:29.148Z,10.20
2017-04-07T00:22:28.175Z,9.07
2017-04-07T00:23:27.098Z,8.90
2017-04-07T00:24:26.243Z,9.70
2017-04-07T00:25:24.856Z,9.98
2017-04-07T00:26:23.764Z,9.90
2017-04-07T00:27:23.179Z,9.62
2017-04-07T00:28:22.135Z,10.77
2017-04-07T00:29:20.685Z,9.65
2017-04-07T00:30:19.669Z,10.47
2017-04-07T00:31:18.702Z,11.08
2017-04-07T00:32:17.624Z,10.32
2017-04-07T00:33:16.623Z,11.25
2017-04-07T00:34:15.700Z,10.37
2017-04-07T00:35:14.252Z,10.82
2017-04-07T00:36:14.111Z,9.35
2017-04-07T00:37:13.091Z,10.48
2017-04-07T00:38:12.000Z,9.87
2017-04-07T00:39:11.059Z,12.73
2017-04-07T00:40:10.015Z,12.13
2017-04-07T00:41:09.039Z,11.62
2017-04-07T00:42:08.012Z,10.27
2017-04-07T00:43:07.030Z,11.15
2017-04-07T00:44:06.343Z,11.77
2017-04-07T00:45:04.952Z,11.72
2017-04-07T00:46:03.971Z,11.22
2017-04-07T00:47:02.879Z,12.27
2017-04-07T00:48:01.880Z,11.15
2017-04-07T00:49:00.881Z,11.35
2017-04-07T00:49:59.859Z,12.93
2017-04-07T00:50:58.814Z,11.93
2017-04-07T00:51:57.413Z,10.72
2017-04-07T00:52:56.376Z,12.03
2017-04-07T00:53:55.357Z,11.38
2017-04-07T00:54:54.375Z,12.85
2017-04-07T00:55:53.367Z,13.87
2017-04-07T00:56:52.360Z,13.95
2017-04-07T00:57:51.322Z,13.83
2017-04-07T00:58:50.317Z,11.93
2017-04-07T00:59:49.261Z,12.53
2017-04-07T01:00:48.191Z,12.55
2017-04-07T01:01:47.555Z,14.03
2017-04-07T01:02:46.550Z,12.48
2017-04-07T01:03:45.521Z,13.20
2017-04-07T01:04:44.530Z,13.50
2017-04-07T01:05:43.532Z,13.23
2017-04-07T01:06:42.542Z,13.05
2017-04-07T01:07:41.086Z,12.72
2017-04-07T01:08:40.059Z,13.23
2017-04-07T01:09:39.076Z,12.98
2017-04-07T01:10:38.056Z,13.28
2017-04-07T01:11:36.627Z,13.18
2017-04-07T01:12:35.943Z,12.42
2017-04-07T01:13:34.866Z,12.57
2017-04-07T01:14:33.454Z,13.22
2017-04-07T01:15:32.422Z,12.87
2017-04-07T01:16:31.826Z,13.33
2017-04-07T01:17:30.876Z,14.55
2017-04-07T01:18:29.827Z,14.70
2017-04-07T01:19:28.820Z,13.25
2017-04-07T01:20:27.823Z,13.95
2017-04-07T01:21:26.815Z,13.65
2017-04-07T01:22:25.786Z,14.08
2017-04-07T01:23:24.763Z,14.35
2017-04-07T01:24:23.730Z,14.50
2017-04-07T01:25:22.696Z,12.85
2017-04-07T01:26:21.650Z,12.95
2017-04-07T01:27:20.639Z,13.83
2017-04-07T01:28:19.587Z,12.80
2017-04-07T01:29:18.635Z,14.58
2017-04-07T01:30:17.969Z,12.32
2017-04-07T01:31:16.947Z,12.97
2017-04-07T01:32:15.506Z,15.25
2017-04-07T01:33:14.462Z,15.05
2017-04-07T01:34:13.423Z,14.95
2017-04-07T01:35:11.977Z,16.00
2017-04-07T01:36:10.983Z,15.13
2017-04-07T01:37:09.964Z,13.65
2017-04-07T01:38:09.002Z,14.43
2017-04-07T01:39:07.914Z,13.82
2017-04-07T01:40:06.899Z,14.40
2017-04-07T01:41:05.831Z,17.78
2017-04-07T01:42:04.791Z,15.00
2017-04-07T01:43:03.705Z,14.87
2017-04-07T01:44:02.744Z,15.48
2017-04-07T01:45:01.714Z,13.73
2017-04-07T01:46:00.711Z,14.12
2017-04-07T01:46:59.707Z,13.58
2017-04-07T01:47:58.745Z,14.68
2017-04-07T01:48:57.777Z,16.12
2017-04-07T01:49:56.787Z,15.33
2017-04-07T01:50:56.147Z,15.18
2017-04-07T01:51:55.094Z,14.30
2017-04-07T01:52:54.787Z,15.82
2017-04-07T01:53:53.847Z,15.55
2017-04-07T01:54:53.159Z,14.03
2017-04-07T01:55:52.147Z,14.08
2017-04-07T01:56:51.123Z,15.57
2017-04-07T01:57:50.078Z,16.02
2017-04-07T01:58:49.080Z,15.50
2017-04-07T01:59:48.175Z,17.78
2017-04-07T02:00:47.227Z,14.62
2017-04-07T02:01:46.206Z,16.78
2017-04-07T02:02:45.160Z,15.60
2017-04-07T02:03:44.204Z,15.95
2017-04-07T02:04:43.163Z,16.43
2017-04-07T02:05:42.136Z,15.80
2017-04-07T02:06:41.153Z,16.25
2017-04-07T02:07:40.119Z,15.92
2017-04-07T02:08:39.099Z,17.80
2017-04-07T02:09:38.463Z,16.28
2017-04-07T02:10:37.415Z,17.63
2017-04-07T02:11:36.379Z,18.47
2017-04-07T02:12:35.314Z,16.82
2017-04-07T02:13:34.253Z,18.03
2017-04-07T02:14:33.251Z,15.53
2017-04-07T02:15:32.176Z,17.57
2017-04-07T02:16:31.130Z,18.13
2017-04-07T02:17:30.505Z,18.65
2017-04-07T02:18:29.504Z,16.13
2017-04-07T02:19:28.483Z,16.32
2017-04-07T02:20:27.520Z,16.87
2017-04-07T02:21:26.467Z,16.58
2017-04-07T02:22:25.455Z,18.45
2017-04-07T02:23:24.491Z,17.92
2017-04-07T02:24:23.432Z,19.53
2017-04-07T02:25:22.389Z,15.55
2017-04-07T02:26:21.360Z,17.30
2017-04-07T02:27:20.331Z,18.00
2017-04-07T02:28:19.324Z,18.38
2017-04-07T02:29:18.303Z,17.22
2017-04-07T02:30:18.095Z,18.93
2017-04-07T02:31:17.040Z,17.53
2017-04-07T02:32:16.027Z,18.28
2017-04-07T02:33:15.028Z,19.05
2017-04-07T02:34:13.996Z,17.43
2017-04-07T02:35:13.016Z,18.92
2017-04-07T02:36:11.945Z,18.17
2017-04-07T02:37:10.987Z,17.97
2017-04-07T02:38:09.978Z,18.60
2017-04-07T02:39:08.935Z,18.93
2017-04-07T02:40:08.011Z,19.47
2017-04-07T02:41:06.999Z,18.95
2017-04-07T02:42:05.994Z,18.57
2017-04-07T02:43:05.014Z,18.90
2017-04-07T02:44:04.048Z,20.35
2017-04-07T02:45:03.023Z,18.17
2017-04-07T02:46:02.337Z,19.77
2017-04-07T02:47:00.932Z,19.42
2017-04-07T02:47:59.483Z,19.03
2017-04-07T02:48:58.049Z,19.42
2017-04-07T02:49:57.041Z,20.93
2017-04-07T02:50:56.056Z,19.45
2017-04-07T02:51:55.009Z,21.42
2017-04-07T02:52:53.992Z,20.90
2017-04-07T02:53:53.023Z,21.35
2017-04-07T02:54:51.549Z,21.08
2017-04-07T02:55:50.567Z,20.40
2017-04-07T02:56:49.503Z,18.88
2017-04-07T02:57:48.476Z,19.85
2017-04-07T02:58:47.864Z,21.38
2017-04-07T02:59:46.858Z,19.53
2017-04-07T03:00:46.199Z,19.93
2017-04-07T03:01:45.192Z,20.32
2017-04-07T03:02:44.583Z,19.15
2017-04-07T03:03:43.539Z,20.85
2017-04-07T03:04:42.526Z,18.67
2017-04-07T03:05:41.519Z,19.93
2017-04-07T03:06:40.515Z,21.10
2017-04-07T03:07:39.103Z,22.72
2017-04-07T03:08:38.036Z,22.07
2017-04-07T03:09:37.046Z,22.28
2017-04-07T03:10:35.990Z,20.77
2017-04-07T03:11:34.976Z,21.27
2017-04-07T03:12:33.987Z,21.85
2017-04-07T03:13:33.079Z,21.45
2017-04-07T03:14:31.999Z,20.25
2017-04-07T03:15:30.574Z,20.98
2017-04-07T03:16:29.583Z,20.93
2017-04-07T03:17:28.560Z,20.30
2017-04-07T03:18:27.253Z,21.03
2017-04-07T03:19:25.807Z,18.65
2017-04-07T03:20:25.136Z,18.72
2017-04-07T03:21:24.129Z,19.87
2017-04-07T03:22:23.115Z,19.52
2017-04-07T03:23:22.171Z,20.52
2017-04-07T03:24:21.108Z,19.87
2017-04-07T03:25:20.132Z,19.58
2017-04-07T03:26:19.127Z,17.58
2017-04-07T03:27:17.695Z,16.88
2017-04-07T03:28:16.704Z,18.58
2017-04-07T03:29:15.703Z,19.33
2017-04-07T03:30:14.675Z,18.50
2017-04-07T03:31:13.620Z,16.28
2017-04-07T03:32:12.194Z,19.25
2017-04-07T03:33:11.220Z,19.72
2017-04-07T03:34:10.250Z,17.87
2017-04-07T03:35:09.607Z,17.85
2017-04-07T03:36:08.542Z,17.00
2017-04-07T03:37:07.551Z,18.25
2017-04-07T03:38:06.535Z,17.47
2017-04-07T03:39:05.887Z,17.25
2017-04-07T03:40:04.943Z,16.13
2017-04-07T03:41:03.851Z,17.60
2017-04-07T03:42:02.790Z,15.70
2017-04-07T03:43:02.176Z,16.05
2017-04-07T03:44:01.143Z,18.23
2017-04-07T03:45:00.099Z,17.38
2017-04-07T03:45:59.099Z,16.90
2017-04-07T03:46:58.060Z,17.77
2017-04-07T03:47:57.370Z,15.82
2017-04-07T03:48:55.918Z,15.95
2017-04-07T03:49:54.625Z,16.32
2017-04-07T03:50:53.610Z,15.88
2017-04-07T03:51:53.027Z,17.40
2017-04-07T03:52:52.032Z,15.45
2017-04-07T03:53:51.031Z,17.72
2017-04-07T03:54:50.136Z,16.65
2017-04-07T03:55:49.172Z,16.32
2017-04-07T03:56:48.200Z,16.00
2017-04-07T03:57:46.833Z,17.60
2017-04-07T03:58:45.950Z,15.83
2017-04-07T03:59:44.937Z,16.03
2017-04-07T04:00:43.937Z,15.25
2017-04-07T04:01:42.943Z,14.83
2017-04-07T04:02:41.982Z,15.32
2017-04-07T04:03:41.054Z,14.83
2017-04-07T04:04:39.986Z,14.98
2017-04-07T04:05:39.019Z,14.50
2017-04-07T04:06:38.006Z,16.07
2017-04-07T04:07:36.947Z,16.42
2017-04-07T04:08:36.308Z,16.52
2017-04-07T04:09:35.335Z,16.72
2017-04-07T04:10:34.286Z,16.23
2017-04-07T04:11:33.300Z,16.28
2017-04-07T04:12:32.676Z,16.63
2017-04-07T04:13:31.652Z,16.68
2017-04-07T04:14:30.204Z,17.10
2017-04-07T04:15:29.304Z,15.95
2017-04-07T04:16:32.469Z,17.10
2017-04-07T04:17:31.891Z,16.48
2017-04-07T04:18:30.840Z,17.58
2017-04-07T04:19:29.755Z,16.05
2017-04-07T04:20:28.759Z,14.88
2017-04-07T04:21:27.792Z,17.85
2017-04-07T04:22:26.352Z,17.72
2017-04-07T04:23:25.372Z,17.28
2017-04-07T04:24:24.463Z,16.50
2017-04-07T04:25:23.390Z,18.02
2017-04-07T04:26:22.428Z,16.53
2017-04-07T04:27:21.446Z,16.95
2017-04-07T04:28:20.426Z,17.15
2017-04-07T04:29:19.411Z,16.90
2017-04-07T04:30:18.364Z,16.47
2017-04-07T04:31:16.964Z,17.53
2017-04-07T04:32:15.927Z,16.82
2017-04-07T04:33:14.962Z,16.32
2017-04-07T04:34:13.935Z,17.15
2017-04-07T04:35:12.863Z,15.80
2017-04-07T04:36:11.863Z,16.82
2017-04-07T04:37:10.843Z,15.60
2017-04-07T04:38:09.857Z,17.92
2017-04-07T04:39:08.768Z,15.97
2017-04-07T04:40:07.760Z,17.67
2017-04-07T04:41:07.048Z,17.82
2017-04-07T04:42:06.096Z,17.43
2017-04-07T04:43:05.119Z,18.50
2017-04-07T04:44:03.666Z,17.93
2017-04-07T04:45:02.293Z,16.27
2017-04-07T04:46:01.232Z,17.55
2017-04-07T04:46:59.903Z,19.03
2017-04-07T04:47:58.843Z,18.13
2017-04-07T04:48:57.823Z,18.98
2017-04-07T04:49:56.343Z,17.95
2017-04-07T04:50:54.965Z,16.60
2017-04-07T04:51:53.991Z,18.43
2017-04-07T04:52:52.959Z,17.95
2017-04-07T04:53:51.948Z,19.87
2017-04-07T04:54:50.897Z,18.07
2017-04-07T04:55:49.816Z,20.55
2017-04-07T04:56:49.211Z,18.07
2017-04-07T04:57:48.258Z,18.57
2017-04-07T04:58:46.777Z,18.18
2017-04-07T04:59:46.139Z,17.30
2017-04-07T05:00:45.125Z,17.70
2017-04-07T05:01:44.079Z,18.02
2017-04-07T05:02:42.635Z,17.77
2017-04-07T05:03:42.080Z,18.15
2017-04-07T05:04:41.071Z,16.10
2017-04-07T05:05:40.007Z,17.97
2017-04-07T05:06:38.592Z,18.73
2017-04-07T05:07:37.188Z,15.67
2017-04-07T05:08:36.220Z,20.00
2017-04-07T05:09:35.163Z,18.95
2017-04-07T05:10:34.113Z,18.35
2017-04-07T05:11:33.118Z,18.23
2017-04-07T05:12:32.131Z,19.45
2017-04-07T05:13:31.142Z,20.83
2017-04-07T05:14:29.786Z,19.55
2017-04-07T05:15:28.779Z,17.68
2017-04-07T05:16:27.740Z,18.62
2017-04-07T05:17:26.708Z,20.00
2017-04-07T05:18:25.647Z,17.32
2017-04-07T05:19:24.634Z,19.65
2017-04-07T05:20:23.679Z,18.97
2017-04-07T05:21:22.641Z,17.58
2017-04-07T05:22:21.664Z,16.98
2017-04-07T05:23:20.639Z,18.52
2017-04-07T05:24:19.215Z,18.87
2017-04-07T05:25:18.152Z,15.30
2017-04-07T05:26:17.237Z,16.70
2017-04-07T05:27:16.158Z,16.77
2017-04-07T05:28:15.554Z,17.07
2017-04-07T05:29:14.476Z,17.62
2017-04-07T05:30:13.044Z,17.95
2017-04-07T05:31:12.399Z,17.95
2017-04-07T05:32:11.364Z,16.85
2017-04-07T05:33:10.382Z,18.00
2017-04-07T05:34:09.011Z,18.30
2017-04-07T05:35:07.910Z,18.68
2017-04-07T05:36:06.900Z,18.35
2017-04-07T05:37:09.641Z,20.15
2017-04-07T05:38:45.921Z,16.12
2017-04-07T05:39:53.219Z,17.12
2017-04-07T05:41:00.868Z,16.45
2017-04-07T05:42:27.797Z,16.77
2017-04-07T05:43:32.262Z,18.22
2017-04-07T05:44:31.238Z,17.13
2017-04-07T05:45:30.674Z,17.97
2017-04-07T05:46:29.633Z,18.60
2017-04-07T05:47:28.660Z,16.87
2017-04-07T05:48:27.650Z,20.65
2017-04-07T05:49:26.599Z,17.23
2017-04-07T05:50:25.983Z,18.05
2017-04-07T05:51:25.027Z,16.65
2017-04-07T05:52:23.979Z,18.17
2017-04-07T05:53:22.977Z,19.13
2017-04-07T05:54:21.967Z,19.05
2017-04-07T05:55:21.711Z,19.08
2017-04-07T05:56:21.187Z,17.85
2017-04-07T05:57:20.175Z,17.60
2017-04-07T05:58:19.171Z,20.23
2017-04-07T05:59:17.723Z,18.37
2017-04-07T06:00:16.719Z,18.38
2017-04-07T06:01:15.272Z,17.45
2017-04-07T06:02:14.303Z,18.92
2017-04-07T06:03:13.666Z,18.25
2017-04-07T06:04:12.613Z,18.90
2017-04-07T06:05:11.622Z,18.38
2017-04-07T06:06:10.560Z,18.68
2017-04-07T06:07:09.190Z,19.75
2017-04-07T06:08:08.171Z,20.83
2017-04-07T06:09:07.112Z,20.47
2017-04-07T06:10:06.221Z,19.42
2017-04-07T06:11:04.753Z,18.12
2017-04-07T06:12:03.783Z,19.00
2017-04-07T06:13:02.711Z,18.68
2017-04-07T06:14:01.717Z,18.93
2017-04-07T06:15:00.667Z,16.63
2017-04-07T06:15:59.623Z,19.20
2017-04-07T06:16:58.673Z,18.45
2017-04-07T06:17:57.628Z,20.17
2017-04-07T06:18:56.954Z,19.15
2017-04-07T06:19:55.940Z,19.18
2017-04-07T06:20:54.862Z,18.42
2017-04-07T06:21:53.868Z,19.80
2017-04-07T06:22:53.215Z,19.52
2017-04-07T06:23:52.204Z,17.38
2017-04-07T06:24:51.135Z,19.87
2017-04-07T06:25:50.159Z,18.35
2017-04-07T06:26:49.131Z,19.00
2017-04-07T06:27:48.078Z,21.07
2017-04-07T06:28:46.656Z,19.43
2017-04-07T06:29:45.983Z,20.82
2017-04-07T06:30:44.951Z,21.02
2017-04-07T06:31:43.892Z,21.05
2017-04-07T06:32:42.862Z,22.65
2017-04-07T06:33:41.817Z,20.60
2017-04-07T06:34:40.786Z,21.53
2017-04-07T06:35:39.730Z,21.18
2017-04-07T06:36:38.719Z,22.07
2017-04-07T06:37:38.057Z,20.60
2017-04-07T06:38:36.637Z,21.10
2017-04-07T06:39:35.605Z,21.25
2017-04-07T06:40:34.594Z,22.13
2017-04-07T06:41:33.560Z,25.17
2017-04-07T06:42:32.547Z,23.15
2017-04-07T06:43:31.488Z,23.98
2017-04-07T06:44:30.444Z,25.25
2017-04-07T06:45:29.447Z,21.05
2017-04-07T06:46:28.374Z,22.27
2017-04-07T06:47:27.348Z,21.23
2017-04-07T06:48:29.343Z,20.58
2017-04-07T06:49:28.351Z,23.47
2017-04-07T06:50:26.943Z,21.55
2017-04-07T06:51:25.547Z,23.52
2017-04-07T06:52:24.495Z,22.20
2017-04-07T06:53:23.502Z,22.72
2017-04-07T06:54:22.527Z,23.78
2017-04-07T06:55:21.568Z,21.70
2017-04-07T06:56:20.955Z,22.32
2017-04-07T06:57:19.948Z,22.12
2017-04-07T06:58:18.931Z,23.22
2017-04-07T06:59:17.858Z,24.23
2017-04-07T07:00:16.921Z,22.65
2017-04-07T07:01:15.944Z,22.87
2017-04-07T07:02:14.882Z,22.83
2017-04-07T07:03:13.862Z,21.75
2017-04-07T07:04:12.941Z,24.23
2017-04-07T07:05:12.484Z,23.00
2017-04-07T07:06:11.434Z,23.72
2017-04-07T07:07:10.540Z,22.68
2017-04-07T07:08:09.481Z,21.97
2017-04-07T07:09:08.600Z,22.58
2017-04-07T07:10:07.560Z,22.10
2017-04-07T07:11:06.536Z,22.55
2017-04-07T07:12:05.179Z,22.55
2017-04-07T07:13:04.187Z,21.02
2017-04-07T07:14:03.607Z,23.02
2017-04-07T07:15:02.638Z,21.92
2017-04-07T07:16:01.616Z,21.92
2017-04-07T07:17:00.616Z,21.67
2017-04-07T07:17:59.234Z,22.88
2017-04-07T07:18:58.208Z,20.73
2017-04-07T07:19:57.301Z,24.17
2017-04-07T07:20:56.323Z,22.13
2017-04-07T07:21:56.372Z,21.55
2017-04-07T07:22:55.374Z,22.10
2017-04-07T07:23:54.306Z,22.07
2017-04-07T07:24:53.360Z,22.22
2017-04-07T07:25:53.075Z,23.88
2017-04-07T07:26:51.695Z,22.07
2017-04-07T07:27:51.038Z,24.63
2017-04-07T07:28:49.617Z,22.17
2017-04-07T07:29:49.073Z,21.30
2017-04-07T07:30:48.102Z,23.80
2017-04-07T07:31:47.491Z,23.23
2017-04-07T07:32:46.455Z,24.50
2017-04-07T07:33:45.413Z,22.65
2017-04-07T07:34:44.072Z,22.90
2017-04-07T07:35:43.495Z,23.17
2017-04-07T07:36:42.127Z,25.90
2017-04-07T07:37:40.771Z,24.87
2017-04-07T07:38:39.730Z,22.40
2017-04-07T07:39:38.335Z,21.60
2017-04-07T07:40:37.240Z,22.35
2017-04-07T07:41:36.231Z,23.23
2017-04-07T07:42:35.244Z,22.18
2017-04-07T07:43:34.218Z,21.98
2017-04-07T07:44:33.206Z,23.70
2017-04-07T07:45:32.179Z,22.43
2017-04-07T07:46:31.147Z,20.83
2017-04-07T07:47:30.440Z,23.07
2017-04-07T07:48:29.463Z,21.57
2017-04-07T07:49:28.451Z,21.57
2017-04-07T07:50:27.429Z,23.30
2017-04-07T07:51:26.504Z,21.15
2017-04-07T07:52:25.428Z,24.28
2017-04-07T07:53:24.799Z,23.20
2017-04-07T07:54:23.871Z,23.07
2017-04-07T07:55:22.856Z,23.77
2017-04-07T07:56:21.810Z,23.18
2017-04-07T07:57:20.869Z,23.90
2017-04-07T07:58:19.847Z,23.53
2017-04-07T07:59:18.431Z,21.63
2017-04-07T08:00:17.502Z,21.98
2017-04-07T08:01:16.459Z,22.78
2017-04-07T08:02:15.035Z,22.65
2017-04-07T08:03:14.019Z,21.92
2017-04-07T08:04:13.000Z,21.78
2017-04-07T08:05:11.976Z,23.67
2017-04-07T08:06:10.950Z,22.87
2017-04-07T08:07:09.932Z,23.78
2017-04-07T08:08:08.916Z,21.67
2017-04-07T08:09:07.874Z,22.10
2017-04-07T08:10:06.878Z,22.45
2017-04-07T08:11:05.803Z,23.02
2017-04-07T08:12:04.795Z,22.22
2017-04-07T08:13:03.786Z,21.68
2017-04-07T08:14:02.700Z,24.17
2017-04-07T08:15:01.646Z,22.98
2017-04-07T08:16:00.687Z,20.45
2017-04-07T08:16:59.775Z,22.57
2017-04-07T08:17:58.767Z,21.62
2017-04-07T08:18:57.780Z,21.10
2017-04-07T08:19:56.787Z,24.58
2017-04-07T08:20:55.759Z,22.02
2017-04-07T08:21:54.735Z,22.97
2017-04-07T08:22:53.338Z,21.85
2017-04-07T08:23:52.262Z,23.28
2017-04-07T08:24:51.302Z,22.03
2017-04-07T08:25:49.874Z,22.25
2017-04-07T08:26:48.456Z,22.50
2017-04-07T08:27:47.387Z,20.25
2017-04-07T08:28:46.768Z,20.78
2017-04-07T08:29:45.776Z,22.98
2017-04-07T08:30:44.755Z,22.80
2017-04-07T08:31:43.742Z,24.65
2017-04-07T08:32:42.711Z,21.13
2017-04-07T08:33:41.659Z,22.07
2017-04-07T08:34:40.656Z,22.60
2017-04-07T08:35:39.606Z,22.93
2017-04-07T08:36:38.898Z,22.52
2017-04-07T08:37:38.043Z,22.28
2017-04-07T08:38:37.215Z,22.90
2017-04-07T08:39:36.191Z,24.68
2017-04-07T08:40:35.187Z,19.95
2017-04-07T08:41:34.158Z,22.13
2017-04-07T08:42:33.141Z,21.27
2017-04-07T08:43:32.174Z,22.95
2017-04-07T08:44:31.158Z,21.15
2017-04-07T08:45:29.708Z,21.82
2017-04-07T08:46:28.683Z,23.28
2017-04-07T08:47:27.288Z,21.35
2017-04-07T08:48:26.254Z,21.08
2017-04-07T08:49:25.243Z,21.05
2017-04-07T08:50:24.292Z,20.03
2017-04-07T08:51:23.291Z,23.00
2017-04-07T08:52:22.347Z,22.80
2017-04-07T08:53:21.302Z,22.83
2017-04-07T08:54:19.879Z,21.15
2017-04-07T08:55:19.200Z,22.67
2017-04-07T08:56:18.219Z,23.22
2017-04-07T08:57:17.171Z,24.23
2017-04-07T08:58:16.127Z,24.50
2017-04-07T08:59:15.222Z,22.08
2017-04-07T09:00:13.812Z,21.68
2017-04-07T09:01:12.919Z,20.25
2017-04-07T09:02:11.947Z,22.13
2017-04-07T09:03:10.519Z,23.98
2017-04-07T09:04:09.896Z,23.08
2017-04-07T09:05:08.864Z,22.03
2017-04-07T09:06:07.822Z,20.48
2017-04-07T09:07:06.863Z,22.03
2017-04-07T09:08:05.864Z,21.93
2017-04-07T09:09:05.795Z,21.07
2017-04-07T09:10:04.807Z,20.78
2017-04-07T09:11:03.804Z,22.42
2017-04-07T09:12:02.755Z,21.15
2017-04-07T09:13:01.706Z,20.78
2017-04-07T09:14:00.670Z,21.68
2017-04-07T09:14:59.985Z,19.62
2017-04-07T09:15:58.965Z,20.22
2017-04-07T09:16:57.971Z,19.70
2017-04-07T09:17:56.947Z,22.45
2017-04-07T09:18:55.489Z,20.58
2017-04-07T09:19:54.123Z,22.22
2017-04-07T09:20:53.092Z,24.23
2017-04-07T09:21:52.171Z,21.67
2017-04-07T09:22:51.139Z,20.50
2017-04-07T09:23:50.132Z,19.88
2017-04-07T09:24:49.111Z,20.55
2017-04-07T09:25:48.147Z,21.95
2017-04-07T09:26:47.053Z,20.23
2017-04-07T09:27:46.072Z,20.78
2017-04-07T09:28:44.648Z,21.68
2017-04-07T09:29:43.588Z,19.43
2017-04-07T09:30:42.872Z,21.22
2017-04-07T09:31:41.502Z,22.62
2017-04-07T09:32:40.448Z,20.35
2017-04-07T09:33:39.498Z,20.55
2017-04-07T09:34:38.479Z,21.07
2017-04-07T09:35:37.421Z,20.23
2017-04-07T09:36:36.391Z,20.48
2017-04-07T09:37:34.988Z,21.50
2017-04-07T09:38:33.964Z,20.47
2017-04-07T09:39:32.931Z,19.35
2017-04-07T09:40:31.911Z,21.75
2017-04-07T09:41:31.055Z,20.03
2017-04-07T09:42:30.031Z,21.43
2017-04-07T09:43:29.019Z,21.72
2017-04-07T09:44:28.006Z,20.00
2017-04-07T09:45:26.984Z,21.60
2017-04-07T09:46:25.950Z,20.70
2017-04-07T09:47:24.930Z,21.48
2017-04-07T09:48:23.535Z,18.78
2017-04-07T09:49:22.498Z,20.75
2017-04-07T09:50:21.519Z,19.02
2017-04-07T09:51:20.474Z,24.68
2017-04-07T09:52:19.887Z,19.53
2017-04-07T09:53:18.826Z,18.68
2017-04-07T09:54:17.766Z,19.58
2017-04-07T09:55:16.825Z,20.95
2017-04-07T09:56:15.786Z,20.08
2017-04-07T09:57:14.798Z,20.17
2017-04-07T09:58:13.324Z,19.05
2017-04-07T09:59:12.282Z,21.45
2017-04-07T10:00:11.275Z,19.32
2017-04-07T10:01:10.239Z,18.57
2017-04-07T10:02:09.264Z,19.70
2017-04-07T10:03:08.251Z,20.58
2017-04-07T10:04:07.209Z,18.75
2017-04-07T10:05:06.200Z,20.00
2017-04-07T10:06:04.794Z,19.65
2017-04-07T10:07:03.419Z,18.50
2017-04-07T10:08:01.980Z,19.67
2017-04-07T10:09:00.949Z,17.82
2017-04-07T10:09:59.898Z,19.90
2017-04-07T10:10:58.829Z,18.90
2017-04-07T10:11:57.871Z,19.67
2017-04-07T10:12:56.843Z,21.28
2017-04-07T10:13:55.808Z,18.37
2017-04-07T10:14:54.787Z,18.78
2017-04-07T10:15:53.791Z,21.15
2017-04-07T10:16:52.415Z,20.95
2017-04-07T10:17:51.382Z,18.60
2017-04-07T10:18:50.318Z,18.83
2017-04-07T10:19:49.347Z,18.93
2017-04-07T10:20:48.300Z,19.83
2017-04-07T10:21:47.283Z,21.02
2017-04-07T10:22:46.219Z,19.97
2017-04-07T10:23:45.176Z,20.98
2017-04-07T10:24:43.815Z,19.83
2017-04-07T10:25:42.851Z,19.40
2017-04-07T10:26:41.820Z,20.42
2017-04-07T10:27:41.207Z,19.52
2017-04-07T10:28:40.167Z,17.87
2017-04-07T10:29:39.123Z,19.83
2017-04-07T10:30:38.091Z,19.87
2017-04-07T10:31:36.679Z,20.73
2017-04-07T10:32:36.039Z,20.25
2017-04-07T10:33:35.007Z,18.68
2017-04-07T10:34:34.036Z,21.25
2017-04-07T10:35:33.347Z,19.05
2017-04-07T10:36:32.331Z,20.67
2017-04-07T10:37:30.900Z,21.62
2017-04-07T10:38:29.866Z,20.33
2017-04-07T10:39:29.227Z,19.02
2017-04-07T10:40:28.180Z,19.35
2017-04-07T10:41:27.194Z,19.35
2017-04-07T10:42:26.145Z,19.93
2017-04-07T10:43:24.710Z,19.97
2017-04-07T10:44:23.680Z,19.58
2017-04-07T10:45:22.731Z,20.37
2017-04-07T10:46:21.843Z,20.40
2017-04-07T10:47:21.179Z,22.40
2017-04-07T10:48:20.111Z,20.08
2017-04-07T10:49:19.470Z,19.23
2017-04-07T10:50:18.447Z,19.92
2017-04-07T10:51:17.458Z,19.53
2017-04-07T10:52:16.047Z,21.22
2017-04-07T10:53:14.999Z,19.73
2017-04-07T10:54:13.966Z,20.10
2017-04-07T10:55:12.988Z,18.68
2017-04-07T10:56:11.588Z,21.73
2017-04-07T10:57:10.137Z,19.78
2017-04-07T10:58:09.159Z,19.55
2017-04-07T10:59:07.684Z,20.12
2017-04-07T11:00:06.669Z,18.93
2017-04-07T11:01:05.275Z,20.37
2017-04-07T11:02:04.253Z,19.13
2017-04-07T11:03:03.232Z,20.15
2017-04-07T11:04:01.783Z,19.02
2017-04-07T11:05:00.780Z,19.75
2017-04-07T11:05:59.742Z,20.22
2017-04-07T11:06:58.356Z,18.83
2017-04-07T11:07:57.394Z,19.52
2017-04-07T11:08:56.371Z,20.50
2017-04-07T11:09:55.361Z,21.03
2017-04-07T11:10:54.317Z,18.75
2017-04-07T11:11:53.303Z,19.68
2017-04-07T11:12:52.280Z,18.18
2017-04-07T11:13:51.260Z,20.13
2017-04-07T11:14:50.180Z,19.55
2017-04-07T11:15:49.171Z,20.00
2017-04-07T11:16:47.767Z,17.65
2017-04-07T11:17:46.729Z,18.73
2017-04-07T11:18:45.357Z,18.88
2017-04-07T11:19:43.935Z,20.47
2017-04-07T11:20:42.904Z,17.85
2017-04-07T11:21:41.927Z,17.77
2017-04-07T11:22:41.015Z,20.43
2017-04-07T11:23:39.992Z,18.73
2017-04-07T11:24:38.979Z,20.65
2017-04-07T11:25:37.958Z,19.60
2017-04-07T11:26:36.902Z,18.72
2017-04-07T11:27:35.883Z,18.93
2017-04-07T11:28:34.802Z,19.67
2017-04-07T11:29:34.203Z,17.62
2017-04-07T11:30:33.158Z,20.10
2017-04-07T11:31:32.184Z,18.32
2017-04-07T11:32:31.174Z,17.13
2017-04-07T11:33:30.492Z,20.15
2017-04-07T11:34:29.462Z,17.82
2017-04-07T11:35:28.372Z,17.32
2017-04-07T11:36:27.381Z,19.30
2017-04-07T11:37:26.391Z,19.82
2017-04-07T11:38:25.352Z,19.25
2017-04-07T11:39:24.359Z,17.95
2017-04-07T11:40:22.928Z,18.33
2017-04-07T11:41:21.903Z,19.43
2017-04-07T11:42:20.862Z,16.38
2017-04-07T11:43:19.899Z,17.18
2017-04-07T11:44:19.195Z,18.07
2017-04-07T11:45:18.179Z,18.42
2017-04-07T11:46:16.718Z,19.27
2017-04-07T11:47:15.669Z,18.97
2017-04-07T11:48:14.599Z,18.33
2017-04-07T11:49:13.227Z,17.83
2017-04-07T11:50:12.207Z,17.80
2017-04-07T11:51:11.267Z,18.60
2017-04-07T11:52:10.271Z,18.92
2017-04-07T11:53:09.230Z,21.60
2017-04-07T11:54:08.230Z,18.73
2017-04-07T11:55:06.800Z,17.70
2017-04-07T11:56:05.768Z,17.28
2017-04-07T11:57:05.124Z,18.88
2017-04-07T11:58:04.114Z,17.08
2017-04-07T11:59:03.056Z,17.08
2017-04-07T12:00:02.115Z,18.53
2017-04-07T12:01:01.156Z,19.50
2017-04-07T12:02:00.145Z,18.27
2017-04-07T12:02:59.138Z,17.03
2017-04-07T12:03:58.122Z,15.33
2017-04-07T12:04:57.136Z,18.98
2017-04-07T12:05:56.431Z,15.87
2017-04-07T12:06:55.407Z,18.32
2017-04-07T12:07:54.390Z,18.80
2017-04-07T12:08:53.384Z,18.18
2017-04-07T12:09:52.369Z,18.13
2017-04-07T12:10:51.318Z,16.43
2017-04-07T12:11:50.383Z,17.22
2017-04-07T12:12:49.357Z,17.82
2017-04-07T12:13:48.272Z,18.18
2017-04-07T12:14:47.615Z,18.73
2017-04-07T12:15:46.251Z,18.47
2017-04-07T12:16:45.587Z,19.43
2017-04-07T12:17:44.519Z,19.08
2017-04-07T12:18:43.855Z,19.53
2017-04-07T12:19:42.512Z,18.95
2017-04-07T12:20:41.463Z,18.05
2017-04-07T12:21:40.060Z,20.32
2017-04-07T12:22:39.085Z,18.08
2017-04-07T12:23:38.031Z,18.73
2017-04-07T12:24:37.076Z,18.93
2017-04-07T12:25:36.047Z,17.98
2017-04-07T12:26:34.995Z,18.75
2017-04-07T12:27:34.031Z,18.58
2017-04-07T12:28:33.030Z,18.38
2017-04-07T12:29:32.007Z,18.28
2017-04-07T12:30:31.330Z,17.03
2017-04-07T12:31:30.312Z,18.15
2017-04-07T12:32:29.275Z,16.33
2017-04-07T12:33:28.268Z,17.52
2017-04-07T12:34:27.315Z,17.13
2017-04-07T12:35:26.334Z,15.88
2017-04-07T12:36:25.300Z,16.65
2017-04-07T12:37:24.262Z,17.68
2017-04-07T12:38:23.231Z,18.55
2017-04-07T12:39:22.325Z,19.08
2017-04-07T12:40:21.312Z,18.35
2017-04-07T12:41:20.288Z,20.55
2017-04-07T12:42:19.248Z,18.00